createdAt,value
2018-10-06T00:00:57.130Z,13.58
2018-10-06T00:01:57.127Z,13.30
2018-10-06T00:02:57.129Z,13.46
2018-10-06T00:03:57.127Z,13.32
2018-10-06T00:04:57.128Z,13.17
2018-10-06T00:05:57.117Z,13.18
2018-10-06T00:06:57.118Z,13.32
2018-10-06T00:07:57.118Z,13.67
2018-10-06T00:08:57.104Z,13.80
2018-10-06T00:09:57.119Z,13.52
2018-10-06T00:10:57.104Z,13.44
2018-10-06T00:11:57.103Z,13.27
2018-10-06T00:12:57.096Z,13.32
2018-10-06T00:13:57.095Z,13.33
2018-10-06T00:14:57.092Z,13.61
2018-10-06T00:15:57.086Z,13.65
2018-10-06T00:16:57.085Z,13.67
2018-10-06T00:17:57.089Z,13.67
2018-10-06T00:18:57.083Z,13.44
2018-10-06T00:19:57.069Z,13.41
2018-10-06T00:20:57.072Z,13.02
2018-10-06T00:21:57.063Z,13.24
2018-10-06T00:22:57.072Z,13.12
2018-10-06T00:23:57.064Z,12.66
2018-10-06T00:24:57.054Z,12.60
2018-10-06T00:25:57.057Z,12.69
2018-10-06T00:26:57.048Z,12.95
2018-10-06T00:27:57.047Z,13.17
2018-10-06T00:28:57.044Z,13.14
2018-10-06T00:29:57.045Z,13.07
2018-10-06T00:30:57.047Z,13.36
2018-10-06T00:32:05.672Z,13.38
2018-10-06T00:33:50.437Z,12.99
2018-10-06T00:34:50.420Z,13.02
2018-10-06T00:35:50.413Z,13.29
2018-10-06T00:36:50.405Z,13.51
2018-10-06T00:37:50.406Z,13.36
2018-10-06T00:38:50.403Z,13.38
2018-10-06T00:39:50.400Z,12.96
2018-10-06T00:40:50.400Z,12.69
2018-10-06T00:41:50.392Z,12.69
2018-10-06T00:42:50.396Z,12.52
2018-10-06T00:43:50.387Z,12.63
2018-10-06T00:44:50.385Z,12.70
2018-10-06T00:45:50.380Z,13.24
2018-10-06T00:46:50.375Z,12.93
2018-10-06T00:47:50.380Z,13.11
2018-10-06T00:48:50.371Z,13.40
2018-10-06T00:49:50.371Z,13.63
2018-10-06T00:50:50.362Z,13.49
2018-10-06T00:51:50.357Z,13.27
2018-10-06T00:52:50.359Z,12.79
2018-10-06T00:53:50.351Z,13.03
2018-10-06T00:54:50.351Z,12.77
2018-10-06T00:55:50.346Z,13.11
2018-10-06T00:56:50.346Z,12.99
2018-10-06T00:57:50.338Z,13.18
2018-10-06T00:58:50.351Z,13.21
2018-10-06T00:59:50.360Z,12.96
2018-10-06T01:00:50.325Z,13.32
2018-10-06T01:01:50.326Z,13.09
2018-10-06T01:02:50.327Z,13.12
2018-10-06T01:03:50.317Z,13.40
2018-10-06T01:04:50.318Z,13.43
2018-10-06T01:05:50.310Z,13.18
2018-10-06T01:06:50.310Z,12.96
2018-10-06T01:07:50.305Z,13.24
2018-10-06T01:08:50.302Z,12.71
2018-10-06T01:09:50.298Z,12.48
2018-10-06T01:10:50.295Z,12.13
2018-10-06T01:11:50.293Z,12.02
2018-10-06T01:12:50.285Z,11.82
2018-10-06T01:13:50.289Z,11.87
2018-10-06T01:14:50.283Z,11.64
2018-10-06T01:15:50.279Z,11.90
2018-10-06T01:16:50.271Z,11.97
2018-10-06T01:17:50.275Z,12.13
2018-10-06T01:18:50.277Z,12.41
2018-10-06T01:19:50.262Z,12.49
2018-10-06T01:20:50.258Z,12.74
2018-10-06T01:21:50.255Z,12.67
2018-10-06T01:22:50.250Z,12.82
2018-10-06T01:23:50.248Z,13.07
2018-10-06T01:24:50.251Z,12.89
2018-10-06T01:25:50.243Z,12.71
2018-10-06T01:26:50.236Z,12.56
2018-10-06T01:27:50.237Z,12.31
2018-10-06T01:28:50.230Z,12.49
2018-10-06T01:29:50.228Z,12.64
2018-10-06T01:30:50.226Z,12.42
2018-10-06T01:31:50.219Z,12.29
2018-10-06T01:32:50.216Z,12.15
2018-10-06T01:33:50.212Z,12.08
2018-10-06T01:34:50.219Z,12.13
2018-10-06T01:35:50.199Z,12.11
2018-10-06T01:36:50.232Z,12.27
2018-10-06T01:37:50.206Z,12.70
2018-10-06T01:38:50.191Z,12.87
2018-10-06T01:39:50.190Z,12.74
2018-10-06T01:40:50.185Z,12.64
2018-10-06T01:41:50.179Z,12.66
2018-10-06T01:42:50.178Z,12.31
2018-10-06T01:43:50.182Z,12.06
2018-10-06T01:44:50.175Z,11.90
2018-10-06T01:45:50.163Z,12.19
2018-10-06T01:46:50.170Z,12.19
2018-10-06T01:47:50.179Z,12.51
2018-10-06T01:48:50.155Z,12.45
2018-10-06T01:49:50.174Z,12.71
2018-10-06T01:50:50.163Z,12.38
2018-10-06T01:51:50.144Z,12.24
2018-10-06T01:52:50.144Z,12.44
2018-10-06T01:53:50.141Z,12.41
2018-10-06T01:54:50.134Z,12.59
2018-10-06T01:55:50.130Z,12.51
2018-10-06T01:56:50.124Z,12.52
2018-10-06T01:57:50.117Z,12.37
2018-10-06T01:58:50.117Z,12.15
2018-10-06T01:59:50.113Z,12.39
2018-10-06T02:00:50.111Z,12.26
2018-10-06T02:01:50.103Z,12.38
2018-10-06T02:02:50.100Z,12.23
2018-10-06T02:03:50.107Z,12.23
2018-10-06T02:04:50.098Z,12.62
2018-10-06T02:05:50.095Z,12.51
2018-10-06T02:06:50.086Z,12.16
2018-10-06T02:07:50.083Z,12.01
2018-10-06T02:08:50.074Z,12.24
2018-10-06T02:09:50.076Z,12.41
2018-10-06T02:10:50.076Z,12.54
2018-10-06T02:11:50.066Z,12.63
2018-10-06T02:12:50.064Z,12.48
2018-10-06T02:13:50.059Z,12.44
2018-10-06T02:14:50.054Z,12.12
2018-10-06T02:15:50.049Z,11.97
2018-10-06T02:16:50.049Z,11.90
2018-10-06T02:17:50.038Z,11.83
2018-10-06T02:18:50.042Z,12.09
2018-10-06T02:19:50.040Z,12.16
2018-10-06T02:20:50.036Z,12.13
2018-10-06T02:21:50.024Z,12.12
2018-10-06T02:22:50.026Z,12.11
2018-10-06T02:23:50.020Z,11.87
2018-10-06T02:24:50.019Z,12.12
2018-10-06T02:25:50.017Z,12.37
2018-10-06T02:26:50.019Z,12.11
2018-10-06T02:27:50.025Z,12.42
2018-10-06T02:28:50.010Z,12.41
2018-10-06T02:29:50.005Z,12.39
2018-10-06T02:30:50.004Z,12.20
2018-10-06T02:31:49.995Z,12.41
2018-10-06T02:32:49.988Z,12.24
2018-10-06T02:33:49.987Z,11.96
2018-10-06T02:34:49.979Z,11.74
2018-10-06T02:35:49.993Z,11.86
2018-10-06T02:36:50.057Z,11.90
2018-10-06T02:37:49.970Z,11.72
2018-10-06T02:38:49.965Z,12.21
2018-10-06T02:39:49.966Z,12.27
2018-10-06T02:40:49.961Z,12.26
2018-10-06T02:41:49.953Z,11.99
2018-10-06T02:42:49.948Z,11.78
2018-10-06T02:43:49.941Z,11.74
2018-10-06T02:44:49.942Z,11.68
2018-10-06T02:45:49.947Z,11.78
2018-10-06T02:46:49.932Z,11.71
2018-10-06T02:47:49.931Z,11.53
2018-10-06T02:48:49.933Z,11.61
2018-10-06T02:49:49.916Z,11.62
2018-10-06T02:50:49.915Z,11.77
2018-10-06T02:51:49.914Z,11.80
2018-10-06T02:52:49.910Z,11.87
2018-10-06T02:53:49.909Z,11.77
2018-10-06T02:54:49.903Z,11.80
2018-10-06T02:55:49.920Z,12.06
2018-10-06T02:56:49.889Z,12.24
2018-10-06T03:14:47.451Z,11.90
2018-10-06T03:15:47.429Z,11.49
2018-10-06T03:16:47.425Z,11.50
2018-10-06T03:17:47.409Z,11.43
2018-10-06T03:18:47.403Z,11.46
2018-10-06T03:19:47.397Z,11.64
2018-10-06T03:20:47.389Z,12.24
2018-10-06T03:21:47.387Z,12.51
2018-10-06T03:22:47.372Z,12.21
2018-10-06T03:23:47.372Z,12.16
2018-10-06T03:24:47.365Z,12.11
2018-10-06T03:25:47.364Z,11.80
2018-10-06T03:26:47.364Z,11.72
2018-10-06T03:27:47.345Z,11.53
2018-10-06T03:28:47.345Z,11.52
2018-10-06T03:29:47.340Z,11.82
2018-10-06T03:30:47.328Z,11.87
2018-10-06T03:31:47.335Z,11.65
2018-10-06T03:32:47.325Z,11.77
2018-10-06T03:33:47.321Z,12.06
2018-10-06T03:34:47.308Z,12.09
2018-10-06T03:35:47.310Z,11.75
2018-10-06T03:36:47.386Z,11.77
2018-10-06T03:37:47.304Z,11.82
2018-10-06T03:38:47.306Z,11.74
2018-10-06T03:39:47.289Z,12.01
2018-10-06T03:40:47.283Z,12.16
2018-10-06T03:41:47.286Z,11.97
2018-10-06T03:42:47.274Z,11.96
2018-10-06T03:43:47.274Z,11.77
2018-10-06T03:44:47.281Z,11.49
2018-10-06T03:45:47.268Z,11.65
2018-10-06T03:46:47.258Z,11.82
2018-10-06T03:47:47.258Z,11.78
2018-10-06T03:48:47.252Z,11.65
2018-10-06T03:49:47.253Z,11.46
2018-10-06T03:50:47.245Z,11.56
2018-10-06T03:51:47.240Z,11.49
2018-10-06T03:52:47.230Z,11.35
2018-10-06T03:53:47.309Z,11.31
2018-10-06T03:54:47.226Z,11.39
2018-10-06T03:55:47.221Z,11.28
2018-10-06T03:56:47.229Z,11.43
2018-10-06T03:57:47.211Z,11.34
2018-10-06T03:58:47.212Z,11.28
2018-10-06T03:59:47.204Z,11.29
2018-10-06T04:00:47.198Z,11.44
2018-10-06T04:01:47.199Z,11.74
2018-10-06T04:02:47.195Z,11.78
2018-10-06T04:03:47.185Z,11.68
2018-10-06T04:04:47.185Z,11.59
2018-10-06T04:05:47.180Z,11.36
2018-10-06T04:06:47.177Z,11.19
2018-10-06T04:07:47.170Z,10.96
2018-10-06T04:08:47.165Z,11.25
2018-10-06T04:09:47.162Z,11.46
2018-10-06T04:10:47.153Z,11.41
2018-10-06T04:11:47.158Z,11.32
2018-10-06T04:12:47.163Z,11.34
2018-10-06T04:13:47.152Z,11.35
2018-10-06T04:14:47.142Z,11.50
2018-10-06T04:15:47.140Z,11.46
2018-10-06T04:16:47.132Z,11.77
2018-10-06T04:17:47.133Z,11.82
2018-10-06T04:18:47.119Z,11.57
2018-10-06T04:19:47.120Z,11.77
2018-10-06T04:20:47.113Z,11.56
2018-10-06T04:21:47.110Z,11.65
2018-10-06T04:22:47.102Z,11.77
2018-10-06T04:23:47.099Z,11.83
2018-10-06T04:24:47.098Z,11.93
2018-10-06T04:25:47.094Z,11.80
2018-10-06T04:26:47.119Z,11.44
2018-10-06T04:27:47.100Z,11.28
2018-10-06T04:28:47.090Z,11.01
2018-10-06T04:29:47.081Z,10.77
2018-10-06T04:30:47.075Z,11.02
2018-10-06T04:31:47.062Z,10.65
2018-10-06T04:32:47.116Z,10.51
2018-10-06T04:33:47.058Z,10.62
2018-10-06T04:34:47.056Z,11.10
2018-10-06T04:35:47.060Z,11.35
2018-10-06T04:36:47.044Z,11.39
2018-10-06T04:37:47.050Z,11.06
2018-10-06T04:38:47.038Z,11.06
2018-10-06T04:39:47.032Z,11.07
2018-10-06T04:40:47.044Z,11.06
2018-10-06T04:41:47.025Z,10.77
2018-10-06T04:42:47.021Z,11.06
2018-10-06T04:43:47.017Z,11.06
2018-10-06T04:44:47.012Z,11.01
2018-10-06T04:45:47.006Z,11.28
2018-10-06T04:46:46.998Z,11.65
2018-10-06T04:47:47.000Z,11.68
2018-10-06T04:48:46.991Z,11.61
2018-10-06T04:49:46.996Z,11.47
2018-10-06T04:50:46.987Z,11.36
2018-10-06T04:51:46.986Z,11.52
2018-10-06T04:52:46.989Z,11.38
2018-10-06T04:53:46.981Z,11.32
2018-10-06T04:54:46.972Z,11.14
2018-10-06T04:55:46.962Z,11.09
2018-10-06T04:56:46.958Z,11.19
2018-10-06T04:57:46.965Z,11.02
2018-10-06T04:58:46.946Z,11.27
2018-10-06T04:59:46.946Z,11.82
2018-10-06T05:00:46.941Z,11.80
2018-10-06T05:01:46.936Z,11.78
2018-10-06T05:02:46.941Z,11.74
2018-10-06T05:03:46.942Z,11.72
2018-10-06T05:04:46.921Z,11.31
2018-10-06T05:05:46.917Z,11.31
2018-10-06T05:06:46.927Z,11.28
2018-10-06T05:07:46.910Z,11.49
2018-10-06T05:08:46.908Z,11.38
2018-10-06T05:09:46.904Z,11.20
2018-10-06T05:10:46.903Z,11.28
2018-10-06T05:11:46.893Z,11.20
2018-10-06T05:12:46.892Z,11.07
2018-10-06T05:13:46.891Z,11.03
2018-10-06T05:14:46.878Z,11.16
2018-10-06T05:15:46.871Z,11.10
2018-10-06T05:16:46.874Z,11.17
2018-10-06T05:17:46.871Z,11.24
2018-10-06T05:18:46.873Z,11.28
2018-10-06T05:19:46.860Z,11.25
2018-10-06T05:20:46.854Z,10.81
2018-10-06T05:21:46.846Z,10.73
2018-10-06T05:22:46.843Z,10.47
2018-10-06T05:23:46.857Z,10.70
2018-10-06T05:24:46.845Z,10.78
2018-10-06T05:25:46.831Z,11.29
2018-10-06T05:26:46.825Z,11.25
2018-10-06T05:27:46.830Z,11.09
2018-10-06T05:28:46.815Z,11.16
2018-10-06T05:29:46.819Z,11.62
2018-10-06T05:30:46.829Z,11.44
2018-10-06T05:31:46.802Z,11.44
2018-10-06T05:32:46.819Z,11.07
2018-10-06T05:33:46.791Z,10.73
2018-10-06T05:34:46.788Z,10.91
2018-10-06T05:35:46.794Z,11.11
2018-10-06T05:36:46.784Z,10.84
2018-10-06T05:37:46.781Z,10.43
2018-10-06T05:38:46.769Z,10.46
2018-10-06T05:39:46.769Z,10.53
2018-10-06T05:40:46.764Z,10.34
2018-10-06T05:41:46.774Z,10.33
2018-10-06T05:42:46.754Z,10.15
2018-10-06T05:43:46.793Z,10.26
2018-10-06T05:44:46.761Z,10.15
2018-10-06T05:45:46.769Z,10.39
2018-10-06T05:46:46.742Z,10.47
2018-10-06T05:47:46.731Z,10.58
2018-10-06T05:48:46.738Z,10.89
2018-10-06T05:49:46.731Z,10.88
2018-10-06T05:50:46.723Z,10.76
2018-10-06T05:51:46.716Z,10.51
2018-10-06T05:52:46.728Z,10.96
2018-10-06T05:53:46.702Z,11.03
2018-10-06T05:54:46.700Z,11.27
2018-10-06T05:55:46.700Z,11.28
2018-10-06T05:56:46.688Z,11.38
2018-10-06T05:57:46.689Z,11.71
2018-10-06T05:58:46.681Z,11.44
2018-10-06T05:59:46.684Z,11.28
2018-10-06T06:00:46.672Z,11.28
2018-10-06T06:01:46.673Z,11.49
2018-10-06T06:02:46.664Z,11.35
2018-10-06T06:03:46.724Z,11.28
2018-10-06T06:04:46.670Z,11.17
2018-10-06T06:05:46.660Z,11.21
2018-10-06T06:06:46.650Z,11.24
2018-10-06T06:07:46.637Z,11.24
2018-10-06T06:08:46.639Z,11.27
2018-10-06T06:09:46.687Z,11.24
2018-10-06T06:10:46.632Z,11.36
2018-10-06T06:11:46.627Z,11.44
2018-10-06T06:12:46.615Z,11.21
2018-10-06T06:13:46.617Z,11.25
2018-10-06T06:14:46.610Z,11.36
2018-10-06T06:15:46.736Z,11.27
2018-10-06T06:16:46.604Z,10.98
2018-10-06T06:17:46.637Z,10.83
2018-10-06T06:18:46.595Z,10.55
2018-10-06T06:19:46.598Z,10.42
2018-10-06T06:20:46.652Z,10.59
2018-10-06T06:21:46.621Z,11.07
2018-10-06T06:22:46.675Z,11.27
2018-10-06T06:23:46.615Z,11.29
2018-10-06T06:24:46.579Z,11.25
2018-10-06T06:25:55.225Z,11.35
2018-10-06T06:27:39.973Z,11.32
2018-10-06T06:28:39.955Z,11.27
2018-10-06T06:29:39.949Z,11.20
2018-10-06T06:30:39.992Z,11.02
2018-10-06T06:31:39.942Z,10.89
2018-10-06T06:32:39.941Z,10.91
2018-10-06T06:33:39.930Z,10.92
2018-10-06T06:34:39.937Z,11.07
2018-10-06T06:35:39.949Z,11.06
2018-10-06T06:36:39.918Z,11.03
2018-10-06T06:37:39.915Z,11.02
2018-10-06T06:38:39.911Z,10.88
2018-10-06T06:39:39.904Z,10.92
2018-10-06T06:40:40.314Z,11.02
2018-10-06T06:41:39.900Z,11.11
2018-10-06T06:42:39.911Z,11.39
2018-10-06T06:43:39.957Z,11.44
2018-10-06T06:44:40.281Z,11.36
2018-10-06T06:45:41.287Z,11.46
2018-10-06T06:46:39.880Z,11.56
2018-10-06T06:47:39.941Z,11.75
2018-10-06T06:48:39.872Z,11.83
2018-10-06T06:49:39.871Z,11.78
2018-10-06T06:50:39.870Z,12.01
2018-10-06T06:51:39.892Z,12.04
2018-10-06T06:52:39.968Z,12.16
2018-10-06T06:53:39.870Z,12.16
2018-10-06T06:54:39.878Z,12.21
2018-10-06T06:55:39.837Z,12.20
2018-10-06T06:56:39.857Z,12.13
2018-10-06T06:57:39.835Z,12.41
2018-10-06T06:58:39.886Z,12.11
2018-10-06T06:59:39.832Z,12.06
2018-10-06T07:00:39.825Z,12.12
2018-10-06T07:01:39.878Z,12.12
2018-10-06T07:02:39.862Z,12.11
2018-10-06T07:03:39.829Z,12.08
2018-10-06T07:04:39.842Z,12.24
2018-10-06T07:05:39.898Z,12.38
2018-10-06T07:06:39.805Z,12.42
2018-10-06T07:07:39.804Z,12.39
2018-10-06T07:08:39.817Z,12.24
2018-10-06T07:09:39.792Z,12.23
2018-10-06T07:10:39.783Z,12.42
2018-10-06T07:11:39.784Z,12.48
2018-10-06T07:12:39.855Z,12.49
2018-10-06T07:13:39.795Z,12.51
2018-10-06T07:14:39.774Z,12.56
2018-10-06T07:15:39.768Z,12.67
2018-10-06T07:16:39.765Z,12.69
2018-10-06T07:17:39.757Z,12.78
2018-10-06T07:18:39.825Z,12.74
2018-10-06T07:19:39.777Z,12.79
2018-10-06T07:20:39.753Z,12.84
2018-10-06T07:21:39.743Z,12.79
2018-10-06T07:22:39.742Z,12.78
2018-10-06T07:23:39.738Z,12.71
2018-10-06T07:24:39.770Z,12.85
2018-10-06T07:25:39.780Z,12.84
2018-10-06T07:26:39.734Z,12.84
2018-10-06T07:27:39.721Z,12.93
2018-10-06T07:28:39.809Z,13.07
2018-10-06T07:29:39.727Z,13.15
2018-10-06T07:30:39.726Z,13.25
2018-10-06T07:31:39.710Z,13.21
2018-10-06T07:32:39.714Z,13.24
2018-10-06T07:33:39.721Z,13.24
2018-10-06T07:34:39.708Z,13.40
2018-10-06T07:35:39.701Z,13.37
2018-10-06T07:36:39.699Z,13.29
2018-10-06T07:37:39.693Z,13.36
2018-10-06T07:38:39.689Z,13.49
2018-10-06T07:39:39.743Z,13.49
2018-10-06T07:40:39.692Z,13.56
2018-10-06T07:41:39.682Z,13.58
2018-10-06T07:42:39.699Z,13.63
2018-10-06T07:43:39.683Z,13.55
2018-10-06T07:44:39.699Z,13.58
2018-10-06T07:45:39.673Z,13.61
2018-10-06T07:46:39.713Z,13.88
2018-10-06T07:47:39.671Z,13.87
2018-10-06T07:48:39.669Z,13.76
2018-10-06T07:49:39.662Z,13.81
2018-10-06T07:50:39.652Z,13.88
2018-10-06T07:51:39.651Z,13.80
2018-10-06T07:52:39.669Z,13.94
2018-10-06T07:53:39.647Z,14.10
2018-10-06T07:54:39.654Z,14.21
2018-10-06T07:55:39.648Z,14.09
2018-10-06T07:56:39.659Z,14.04
2018-10-06T07:57:39.650Z,14.09
2018-10-06T07:58:39.644Z,14.07
2018-10-06T07:59:39.628Z,14.10
2018-10-06T08:00:39.628Z,14.09
2018-10-06T08:01:39.638Z,14.17
2018-10-06T08:02:39.645Z,14.16
2018-10-06T08:03:39.621Z,14.21
2018-10-06T08:04:39.641Z,14.13
2018-10-06T08:05:39.621Z,14.07
2018-10-06T08:06:39.618Z,14.12
2018-10-06T08:07:39.614Z,14.04
2018-10-06T08:08:39.604Z,14.07
2018-10-06T08:09:39.610Z,14.21
2018-10-06T08:10:39.607Z,14.12
2018-10-06T08:11:39.606Z,14.17
2018-10-06T08:12:39.596Z,14.14
2018-10-06T08:13:39.612Z,14.14
2018-10-06T08:14:39.597Z,14.25
2018-10-06T08:15:39.607Z,14.21
2018-10-06T08:16:39.596Z,14.31
2018-10-06T08:17:39.590Z,14.38
2018-10-06T08:18:39.603Z,14.37
2018-10-06T08:19:39.582Z,14.54
2018-10-06T08:20:39.579Z,14.46
2018-10-06T08:21:39.582Z,14.44
2018-10-06T08:22:39.576Z,14.52
2018-10-06T08:23:39.577Z,14.83
2018-10-06T08:24:39.577Z,14.91
2018-10-06T08:25:39.575Z,14.87
2018-10-06T08:26:39.568Z,14.94
2018-10-06T08:27:39.568Z,14.93
2018-10-06T08:28:39.572Z,14.86
2018-10-06T08:29:39.562Z,14.75
2018-10-06T08:30:39.560Z,14.87
2018-10-06T08:31:39.565Z,14.78
2018-10-06T08:32:39.559Z,14.78
2018-10-06T08:33:39.563Z,14.69
2018-10-06T08:34:39.552Z,14.80
2018-10-06T08:35:39.552Z,14.78
2018-10-06T08:36:39.557Z,14.80
2018-10-06T08:37:39.564Z,14.91
2018-10-06T08:38:39.573Z,14.81
2018-10-06T08:39:39.569Z,15.01
2018-10-06T08:40:39.566Z,15.06
2018-10-06T08:41:39.546Z,15.05
2018-10-06T08:42:39.609Z,15.08
2018-10-06T08:43:39.540Z,15.06
2018-10-06T08:44:39.578Z,15.33
2018-10-06T08:45:39.535Z,15.26
2018-10-06T08:46:39.536Z,15.26
2018-10-06T08:47:39.532Z,15.11
2018-10-06T08:48:39.535Z,15.01
2018-10-06T08:49:39.564Z,14.91
2018-10-06T08:50:39.544Z,14.95
2018-10-06T08:51:39.536Z,15.09
2018-10-06T08:52:39.536Z,15.24
2018-10-06T08:53:39.526Z,15.33
2018-10-06T08:54:39.528Z,15.27
2018-10-06T08:55:39.523Z,15.38
2018-10-06T08:56:39.538Z,15.28
2018-10-06T08:57:39.519Z,15.19
2018-10-06T08:58:39.512Z,15.15
2018-10-06T08:59:39.516Z,15.31
2018-10-06T09:00:39.513Z,15.20
2018-10-06T09:01:39.512Z,15.24
2018-10-06T09:02:39.512Z,15.26
2018-10-06T09:03:39.519Z,15.28
2018-10-06T09:04:39.515Z,15.33
2018-10-06T09:05:39.518Z,15.49
2018-10-06T09:06:39.506Z,15.43
2018-10-06T09:07:39.509Z,15.51
2018-10-06T09:08:39.496Z,15.45
2018-10-06T09:09:47.727Z,15.48
2018-10-06T09:11:33.168Z,15.67
2018-10-06T09:12:32.971Z,15.67
2018-10-06T09:13:32.895Z,15.72
2018-10-06T09:14:32.876Z,15.70
2018-10-06T09:15:32.885Z,15.84
2018-10-06T09:16:32.879Z,15.88
2018-10-06T09:17:32.885Z,15.88
2018-10-06T09:18:32.882Z,15.86
2018-10-06T09:19:32.894Z,15.85
2018-10-06T09:20:32.892Z,15.85
2018-10-06T09:21:32.878Z,15.88
2018-10-06T09:22:32.890Z,15.94
2018-10-06T09:23:32.866Z,16.00
2018-10-06T09:24:32.870Z,15.97
2018-10-06T09:25:32.874Z,15.94
2018-10-06T09:26:32.869Z,16.12
2018-10-06T09:27:32.866Z,16.27
2018-10-06T09:28:32.868Z,16.26
2018-10-06T09:29:32.865Z,16.20
2018-10-06T09:30:32.862Z,16.22
2018-10-06T09:31:32.867Z,16.30
2018-10-06T09:32:32.863Z,16.53
2018-10-06T09:33:32.882Z,16.48
2018-10-06T09:34:32.872Z,16.31
2018-10-06T09:35:32.885Z,16.27
2018-10-06T09:36:32.876Z,16.14
2018-10-06T09:37:32.865Z,15.96
2018-10-06T09:38:32.858Z,16.16
2018-10-06T09:39:32.864Z,16.26
2018-10-06T09:40:32.851Z,16.35
2018-10-06T09:41:32.860Z,16.42
2018-10-06T09:42:33.108Z,16.40
2018-10-06T09:43:32.874Z,16.50
2018-10-06T09:44:32.864Z,16.67
2018-10-06T09:45:32.859Z,16.71
2018-10-06T09:46:32.856Z,16.85
2018-10-06T09:47:32.854Z,16.92
2018-10-06T09:48:32.854Z,16.98
2018-10-06T09:49:32.854Z,16.92
2018-10-06T09:50:32.870Z,16.92
2018-10-06T09:51:32.856Z,16.92
2018-10-06T09:52:32.863Z,16.93
2018-10-06T09:53:32.852Z,17.03
2018-10-06T09:54:32.883Z,17.08
2018-10-06T09:55:32.869Z,16.98
2018-10-06T09:56:32.876Z,17.15
2018-10-06T09:57:32.882Z,17.03
2018-10-06T09:58:32.872Z,17.17
2018-10-06T09:59:32.980Z,17.22
2018-10-06T10:00:32.850Z,17.23
2018-10-06T10:01:32.856Z,17.23
2018-10-06T10:02:32.875Z,17.20
2018-10-06T10:03:32.848Z,16.88
2018-10-06T10:04:32.865Z,17.06
2018-10-06T10:05:32.959Z,17.48
2018-10-06T10:06:32.852Z,17.48
2018-10-06T10:07:32.856Z,17.47
2018-10-06T10:08:32.853Z,17.48
2018-10-06T10:09:32.857Z,17.35
2018-10-06T10:10:32.874Z,17.44
2018-10-06T10:11:32.850Z,17.53
2018-10-06T10:12:32.868Z,17.47
2018-10-06T10:13:32.881Z,17.51
2018-10-06T10:14:32.861Z,17.63
2018-10-06T10:15:32.960Z,17.64
2018-10-06T10:16:41.497Z,17.44
2018-10-06T10:18:26.376Z,17.51
2018-10-06T10:19:26.250Z,17.62
2018-10-06T10:20:26.248Z,17.62
2018-10-06T10:21:26.270Z,17.35
2018-10-06T10:22:26.509Z,17.55
2018-10-06T10:23:26.305Z,17.64
2018-10-06T10:24:26.250Z,17.46
2018-10-06T10:25:26.252Z,17.62
2018-10-06T10:26:26.285Z,17.71
2018-10-06T10:27:26.257Z,17.71
2018-10-06T10:28:26.289Z,17.81
2018-10-06T10:29:26.255Z,17.89
2018-10-06T10:30:26.269Z,17.67
2018-10-06T10:31:26.261Z,17.71
2018-10-06T10:32:26.323Z,17.43
2018-10-06T10:33:26.259Z,17.54
2018-10-06T10:34:26.289Z,17.76
2018-10-06T10:35:26.272Z,17.85
2018-10-06T10:36:26.275Z,18.02
2018-10-06T10:37:26.320Z,18.13
2018-10-06T10:38:26.257Z,18.17
2018-10-06T10:39:26.403Z,18.02
2018-10-06T10:40:26.316Z,18.12
2018-10-06T10:41:26.300Z,18.22
2018-10-06T10:42:26.269Z,18.28
2018-10-06T10:43:26.296Z,17.99
2018-10-06T10:44:26.351Z,18.00
2018-10-06T10:45:26.293Z,18.02
2018-10-06T10:46:26.298Z,18.19
2018-10-06T10:47:26.293Z,18.21
2018-10-06T10:48:26.345Z,18.21
2018-10-06T10:49:26.348Z,18.39
2018-10-06T10:50:26.359Z,18.29
2018-10-06T10:51:26.298Z,18.07
2018-10-06T10:52:26.305Z,18.15
2018-10-06T10:53:26.278Z,18.43
2018-10-06T10:54:26.303Z,18.33
2018-10-06T10:55:26.293Z,18.49
2018-10-06T10:56:26.309Z,18.52
2018-10-06T10:57:26.296Z,18.47
2018-10-06T10:58:26.288Z,18.47
2018-10-06T10:59:26.324Z,18.44
2018-10-06T11:00:26.314Z,18.49
2018-10-06T11:01:26.363Z,18.28
2018-10-06T11:02:26.290Z,18.64
2018-10-06T11:03:26.304Z,18.77
2018-10-06T11:04:26.322Z,18.49
2018-10-06T11:05:26.285Z,18.64
2018-10-06T11:06:26.329Z,18.76
2018-10-06T11:07:26.325Z,18.74
2018-10-06T11:08:26.290Z,18.83
2018-10-06T11:09:26.291Z,18.99
2018-10-06T11:10:26.300Z,18.94
2018-10-06T11:11:26.382Z,18.68
2018-10-06T11:12:26.303Z,18.73
2018-10-06T11:13:26.293Z,18.87
2018-10-06T11:14:26.306Z,19.01
2018-10-06T11:15:26.301Z,18.99
2018-10-06T11:16:26.312Z,18.70
2018-10-06T11:17:26.299Z,18.83
2018-10-06T11:18:26.305Z,19.05
2018-10-06T11:19:26.309Z,19.20
2018-10-06T11:20:26.346Z,19.13
2018-10-06T11:21:26.371Z,18.97
2018-10-06T11:22:26.321Z,19.21
2018-10-06T11:23:26.328Z,19.32
2018-10-06T11:24:26.306Z,19.51
2018-10-06T11:25:26.326Z,19.40
2018-10-06T11:26:26.308Z,19.57
2018-10-06T11:27:26.317Z,19.54
2018-10-06T11:28:26.381Z,19.43
2018-10-06T11:29:26.327Z,19.63
2018-10-06T11:30:26.315Z,19.63
2018-10-06T11:31:26.316Z,19.57
2018-10-06T11:32:26.327Z,19.55
2018-10-06T11:33:26.333Z,19.94
2018-10-06T11:34:26.332Z,20.02
2018-10-06T11:35:26.328Z,19.66
2018-10-06T11:36:26.358Z,20.00
2018-10-06T11:37:26.359Z,20.00
2018-10-06T11:38:26.353Z,19.91
2018-10-06T11:39:26.372Z,19.84
2018-10-06T11:40:26.354Z,19.95
2018-10-06T11:41:26.350Z,19.83
2018-10-06T11:42:26.336Z,19.80
2018-10-06T11:43:26.383Z,19.84
2018-10-06T11:44:26.339Z,19.95
2018-10-06T11:45:26.385Z,19.84
2018-10-06T11:46:26.374Z,19.83
2018-10-06T11:47:26.338Z,19.87
2018-10-06T11:48:26.347Z,19.97
2018-10-06T11:49:26.350Z,19.69
2018-10-06T11:50:26.424Z,19.58
2018-10-06T11:51:26.352Z,19.91
2018-10-06T11:52:26.375Z,19.86
2018-10-06T11:53:26.379Z,20.08
2018-10-06T11:54:26.366Z,19.86
2018-10-06T11:55:26.372Z,19.91
2018-10-06T11:56:26.365Z,20.12
2018-10-06T11:57:26.384Z,20.15
2018-10-06T11:58:26.389Z,19.97
2018-10-06T11:59:26.375Z,19.93
2018-10-06T12:00:26.482Z,20.03
2018-10-06T12:01:26.397Z,20.13
2018-10-06T12:02:26.401Z,20.06
2018-10-06T12:03:26.413Z,20.13
2018-10-06T12:04:26.385Z,20.16
2018-10-06T12:05:26.385Z,20.16
2018-10-06T12:06:26.390Z,20.23
2018-10-06T12:07:26.382Z,20.12
2018-10-06T12:08:26.392Z,20.38
2018-10-06T12:09:35.047Z,20.35
2018-10-06T12:11:19.812Z,20.03
2018-10-06T12:12:28.407Z,20.09
2018-10-06T12:14:14.221Z,20.41
2018-10-06T12:15:23.847Z,20.41
2018-10-06T12:17:07.638Z,20.43
2018-10-06T12:18:07.600Z,20.50
2018-10-06T12:19:07.591Z,20.38
2018-10-06T12:20:07.583Z,20.47
2018-10-06T12:21:07.599Z,20.16
2018-10-06T12:22:07.618Z,19.84
2018-10-06T12:23:07.626Z,19.86
2018-10-06T12:24:07.611Z,20.05
2018-10-06T12:25:07.654Z,20.24
2018-10-06T12:26:07.635Z,20.42
2018-10-06T12:27:07.626Z,20.27
2018-10-06T12:28:07.631Z,20.27
2018-10-06T12:29:07.602Z,20.18
2018-10-06T12:30:07.617Z,20.39
2018-10-06T12:31:07.629Z,20.56
2018-10-06T12:32:07.606Z,20.50
2018-10-06T12:33:07.618Z,20.21
2018-10-06T12:34:07.628Z,20.31
2018-10-06T12:35:07.699Z,20.27
2018-10-06T12:36:07.628Z,20.25
2018-10-06T12:37:07.631Z,20.51
2018-10-06T12:38:07.625Z,20.64
2018-10-06T12:39:07.637Z,20.51
2018-10-06T12:40:07.638Z,20.21
2018-10-06T12:41:07.667Z,20.53
2018-10-06T12:42:07.695Z,20.51
2018-10-06T12:43:07.669Z,20.50
2018-10-06T12:44:07.647Z,20.76
2018-10-06T12:45:07.652Z,20.72
2018-10-06T12:46:07.676Z,20.71
2018-10-06T12:47:07.647Z,20.62
2018-10-06T12:48:07.652Z,20.69
2018-10-06T12:49:07.678Z,20.76
2018-10-06T12:50:07.704Z,20.59
2018-10-06T12:51:07.662Z,20.66
2018-10-06T12:52:07.676Z,20.72
2018-10-06T12:53:16.346Z,20.72
2018-10-06T12:55:01.330Z,20.61
2018-10-06T12:56:01.294Z,20.74
2018-10-06T12:57:54.728Z,20.30
2018-10-06T12:58:54.702Z,20.42
2018-10-06T12:59:54.765Z,20.53
2018-10-06T13:00:54.697Z,20.50
2018-10-06T13:01:54.704Z,20.64
2018-10-06T13:02:54.749Z,20.61
2018-10-06T13:03:54.697Z,20.61
2018-10-06T13:04:54.707Z,20.64
2018-10-06T13:05:54.745Z,20.59
2018-10-06T13:06:54.763Z,20.59
2018-10-06T13:07:54.741Z,20.79
2018-10-06T13:08:54.714Z,20.74
2018-10-06T13:09:54.730Z,20.71
2018-10-06T13:10:54.738Z,20.71
2018-10-06T13:11:54.835Z,20.72
2018-10-06T13:12:54.759Z,20.76
2018-10-06T13:13:54.748Z,20.77
2018-10-06T13:14:54.732Z,20.89
2018-10-06T13:15:54.763Z,21.16
2018-10-06T13:16:54.746Z,20.96
2018-10-06T13:17:54.737Z,20.90